sensor_id;sensor_type;location;lat;lon;timestamp;P1;durP1;ratioP1;P2;durP2;ratioP2
37945;SDS011;23769;52.478;13.448;2022-10-23T00:02:20;13.82;;;7.28;;
37945;SDS011;23769;52.478;13.448;2022-10-23T00:04:49;10.95;;;7.60;;
37945;SDS011;23769;52.478;13.448;2022-10-23T00:07:16;11.68;;;8.23;;
37945;SDS011;23769;52.478;13.448;2022-10-23T00:09:43;14.85;;;9.23;;
37945;SDS011;23769;52.478;13.448;2022-10-23T00:12:10;12.45;;;8.75;;
37945;SDS011;23769;52.478;13.448;2022-10-23T00:14:38;19.23;;;13.70;;
37945;SDS011;23769;52.478;13.448;2022-10-23T00:17:06;13.85;;;8.55;;
37945;SDS011;23769;52.478;13.448;2022-10-23T00:19:34;12.70;;;9.18;;
37945;SDS011;23769;52.478;13.448;2022-10-23T00:22:01;17.38;;;11.45;;
37945;SDS011;23769;52.478;13.448;2022-10-23T00:24:30;15.32;;;9.45;;
37945;SDS011;23769;52.478;13.448;2022-10-23T00:26:57;14.90;;;8.82;;
37945;SDS011;23769;52.478;13.448;2022-10-23T00:29:24;16.08;;;9.43;;
37945;SDS011;23769;52.478;13.448;2022-10-23T00:31:53;19.48;;;9.35;;
37945;SDS011;23769;52.478;13.448;2022-10-23T00:34:20;14.35;;;8.95;;
37945;SDS011;23769;52.478;13.448;2022-10-23T00:36:47;13.70;;;9.18;;
37945;SDS011;23769;52.478;13.448;2022-10-23T00:39:14;11.50;;;9.07;;
37945;SDS011;23769;52.478;13.448;2022-10-23T00:41:41;15.05;;;9.10;;
37945;SDS011;23769;52.478;13.448;2022-10-23T00:44:09;14.75;;;8.10;;
37945;SDS011;23769;52.478;13.448;2022-10-23T00:46:37;12.50;;;8.88;;
37945;SDS011;23769;52.478;13.448;2022-10-23T00:49:06;12.60;;;8.95;;
37945;SDS011;23769;52.478;13.448;2022-10-23T00:51:35;12.48;;;8.95;;
37945;SDS011;23769;52.478;13.448;2022-10-23T00:54:04;13.70;;;8.77;;
37945;SDS011;23769;52.478;13.448;2022-10-23T00:56:31;13.35;;;8.98;;
37945;SDS011;23769;52.478;13.448;2022-10-23T00:58:59;12.13;;;8.35;;
37945;SDS011;23769;52.478;13.448;2022-10-23T01:01:26;12.20;;;9.10;;
37945;SDS011;23769;52.478;13.448;2022-10-23T01:03:53;12.05;;;7.88;;
37945;SDS011;23769;52.478;13.448;2022-10-23T01:06:25;12.32;;;7.75;;
37945;SDS011;23769;52.478;13.448;2022-10-23T01:08:57;12.02;;;7.90;;
37945;SDS011;23769;52.478;13.448;2022-10-23T01:11:29;12.90;;;7.55;;
37945;SDS011;23769;52.478;13.448;2022-10-23T01:14:02;14.57;;;7.28;;
37945;SDS011;23769;52.478;13.448;2022-10-23T01:16:32;12.13;;;7.80;;
37945;SDS011;23769;52.478;13.448;2022-10-23T01:19:05;9.93;;;6.82;;
37945;SDS011;23769;52.478;13.448;2022-10-23T01:21:37;12.85;;;7.88;;
37945;SDS011;23769;52.478;13.448;2022-10-23T01:24:11;11.30;;;7.40;;
37945;SDS011;23769;52.478;13.448;2022-10-23T01:26:49;10.57;;;7.35;;
37945;SDS011;23769;52.478;13.448;2022-10-23T01:29:23;13.73;;;8.50;;
37945;SDS011;23769;52.478;13.448;2022-10-23T01:31:52;11.63;;;7.60;;
37945;SDS011;23769;52.478;13.448;2022-10-23T01:34:21;12.48;;;7.70;;
37945;SDS011;23769;52.478;13.448;2022-10-23T01:36:50;14.43;;;8.75;;
37945;SDS011;23769;52.478;13.448;2022-10-23T01:39:19;11.85;;;7.40;;
37945;SDS011;23769;52.478;13.448;2022-10-23T01:41:49;16.17;;;8.23;;
37945;SDS011;23769;52.478;13.448;2022-10-23T01:44:18;13.23;;;8.95;;
37945;SDS011;23769;52.478;13.448;2022-10-23T01:46:49;13.07;;;7.47;;
37945;SDS011;23769;52.478;13.448;2022-10-23T01:49:17;13.93;;;8.43;;
37945;SDS011;23769;52.478;13.448;2022-10-23T01:51:47;12.57;;;7.82;;
37945;SDS011;23769;52.478;13.448;2022-10-23T01:54:15;14.77;;;8.60;;
37945;SDS011;23769;52.478;13.448;2022-10-23T01:56:44;10.05;;;6.90;;
37945;SDS011;23769;52.478;13.448;2022-10-23T01:59:13;13.73;;;7.95;;
37945;SDS011;23769;52.478;13.448;2022-10-23T02:01:43;12.40;;;8.05;;
37945;SDS011;23769;52.478;13.448;2022-10-23T02:04:13;17.60;;;12.07;;
37945;SDS011;23769;52.478;13.448;2022-10-23T02:06:41;20.63;;;12.73;;
37945;SDS011;23769;52.478;13.448;2022-10-23T02:09:08;15.27;;;11.77;;
37945;SDS011;23769;52.478;13.448;2022-10-23T02:11:36;10.43;;;7.32;;
37945;SDS011;23769;52.478;13.448;2022-10-23T02:14:06;14.93;;;7.72;;
37945;SDS011;23769;52.478;13.448;2022-10-23T02:16:36;14.40;;;8.73;;
37945;SDS011;23769;52.478;13.448;2022-10-23T02:19:07;30.90;;;19.27;;
37945;SDS011;23769;52.478;13.448;2022-10-23T02:21:38;20.17;;;13.90;;
37945;SDS011;23769;52.478;13.448;2022-10-23T02:24:10;18.55;;;9.60;;
37945;SDS011;23769;52.478;13.448;2022-10-23T02:26:39;17.65;;;9.20;;
37945;SDS011;23769;52.478;13.448;2022-10-23T02:29:08;11.10;;;7.70;;
37945;SDS011;23769;52.478;13.448;2022-10-23T02:31:36;11.07;;;7.47;;
37945;SDS011;23769;52.478;13.448;2022-10-23T02:34:03;9.00;;;7.30;;
37945;SDS011;23769;52.478;13.448;2022-10-23T02:36:30;14.45;;;8.85;;
37945;SDS011;23769;52.478;13.448;2022-10-23T02:38:59;11.23;;;7.55;;
37945;SDS011;23769;52.478;13.448;2022-10-23T02:41:29;19.77;;;13.32;;
37945;SDS011;23769;52.478;13.448;2022-10-23T02:44:03;16.42;;;10.82;;
37945;SDS011;23769;52.478;13.448;2022-10-23T02:46:34;12.10;;;8.90;;
37945;SDS011;23769;52.478;13.448;2022-10-23T02:49:05;9.77;;;6.78;;
37945;SDS011;23769;52.478;13.448;2022-10-23T02:54:05;9.52;;;7.10;;
37945;SDS011;23769;52.478;13.448;2022-10-23T02:56:35;14.25;;;8.90;;
37945;SDS011;23769;52.478;13.448;2022-10-23T02:59:07;12.57;;;8.43;;
37945;SDS011;23769;52.478;13.448;2022-10-23T03:01:37;11.20;;;7.35;;
37945;SDS011;23769;52.478;13.448;2022-10-23T03:04:05;10.43;;;7.50;;
37945;SDS011;23769;52.478;13.448;2022-10-23T03:06:34;12.52;;;7.13;;
37945;SDS011;23769;52.478;13.448;2022-10-23T03:09:02;9.57;;;7.38;;
37945;SDS011;23769;52.478;13.448;2022-10-23T03:11:31;13.05;;;6.53;;
37945;SDS011;23769;52.478;13.448;2022-10-23T03:13:58;12.15;;;8.10;;
37945;SDS011;23769;52.478;13.448;2022-10-23T03:16:25;12.02;;;8.15;;
37945;SDS011;23769;52.478;13.448;2022-10-23T03:18:52;14.57;;;8.23;;
37945;SDS011;23769;52.478;13.448;2022-10-23T03:21:19;12.93;;;8.20;;
37945;SDS011;23769;52.478;13.448;2022-10-23T03:23:46;10.63;;;8.25;;
37945;SDS011;23769;52.478;13.448;2022-10-23T03:26:14;13.35;;;8.57;;
37945;SDS011;23769;52.478;13.448;2022-10-23T03:28:42;14.80;;;9.40;;
37945;SDS011;23769;52.478;13.448;2022-10-23T03:31:09;14.70;;;8.40;;
37945;SDS011;23769;52.478;13.448;2022-10-23T03:33:36;15.00;;;8.75;;
37945;SDS011;23769;52.478;13.448;2022-10-23T03:36:04;13.75;;;9.05;;
37945;SDS011;23769;52.478;13.448;2022-10-23T03:38:31;13.65;;;8.52;;
37945;SDS011;23769;52.478;13.448;2022-10-23T03:40:58;15.50;;;9.20;;
37945;SDS011;23769;52.478;13.448;2022-10-23T03:43:25;13.75;;;8.73;;
37945;SDS011;23769;52.478;13.448;2022-10-23T03:45:53;16.25;;;9.68;;
37945;SDS011;23769;52.478;13.448;2022-10-23T03:48:21;13.98;;;9.18;;
37945;SDS011;23769;52.478;13.448;2022-10-23T03:50:48;17.25;;;10.00;;
37945;SDS011;23769;52.478;13.448;2022-10-23T03:53:15;15.23;;;10.20;;
37945;SDS011;23769;52.478;13.448;2022-10-23T03:55:42;19.25;;;10.13;;
37945;SDS011;23769;52.478;13.448;2022-10-23T03:58:10;15.98;;;10.55;;
37945;SDS011;23769;52.478;13.448;2022-10-23T04:00:37;15.93;;;9.98;;
37945;SDS011;23769;52.478;13.448;2022-10-23T04:03:05;14.95;;;10.55;;
37945;SDS011;23769;52.478;13.448;2022-10-23T04:05:32;17.42;;;10.18;;
37945;SDS011;23769;52.478;13.448;2022-10-23T04:08:00;16.05;;;10.40;;
37945;SDS011;23769;52.478;13.448;2022-10-23T04:10:27;16.08;;;9.75;;
37945;SDS011;23769;52.478;13.448;2022-10-23T04:12:54;15.52;;;9.95;;
37945;SDS011;23769;52.478;13.448;2022-10-23T04:15:21;16.40;;;9.55;;
37945;SDS011;23769;52.478;13.448;2022-10-23T04:17:48;14.07;;;9.32;;
37945;SDS011;23769;52.478;13.448;2022-10-23T04:20:16;13.93;;;9.65;;
37945;SDS011;23769;52.478;13.448;2022-10-23T04:22:43;13.07;;;8.77;;
37945;SDS011;23769;52.478;13.448;2022-10-23T04:25:11;17.67;;;9.43;;
37945;SDS011;23769;52.478;13.448;2022-10-23T04:27:38;14.60;;;9.52;;
37945;SDS011;23769;52.478;13.448;2022-10-23T04:30:06;14.48;;;9.20;;
37945;SDS011;23769;52.478;13.448;2022-10-23T04:32:33;12.65;;;9.70;;
37945;SDS011;23769;52.478;13.448;2022-10-23T04:35:00;13.05;;;9.10;;
37945;SDS011;23769;52.478;13.448;2022-10-23T04:37:29;12.68;;;8.88;;
37945;SDS011;23769;52.478;13.448;2022-10-23T04:39:56;14.18;;;9.10;;
37945;SDS011;23769;52.478;13.448;2022-10-23T04:42:23;14.77;;;9.45;;
37945;SDS011;23769;52.478;13.448;2022-10-23T04:44:50;17.80;;;9.77;;
37945;SDS011;23769;52.478;13.448;2022-10-23T04:47:17;15.02;;;9.07;;
37945;SDS011;23769;52.478;13.448;2022-10-23T04:49:44;16.15;;;10.57;;
37945;SDS011;23769;52.478;13.448;2022-10-23T04:52:11;16.70;;;9.95;;
37945;SDS011;23769;52.478;13.448;2022-10-23T04:54:39;15.85;;;9.25;;
37945;SDS011;23769;52.478;13.448;2022-10-23T04:57:06;13.35;;;9.38;;
37945;SDS011;23769;52.478;13.448;2022-10-23T04:59:34;17.60;;;10.70;;
37945;SDS011;23769;52.478;13.448;2022-10-23T05:02:01;14.07;;;9.65;;
37945;SDS011;23769;52.478;13.448;2022-10-23T05:04:28;16.38;;;10.52;;
37945;SDS011;23769;52.478;13.448;2022-10-23T05:06:55;13.60;;;9.50;;
37945;SDS011;23769;52.478;13.448;2022-10-23T05:09:22;19.50;;;10.45;;
37945;SDS011;23769;52.478;13.448;2022-10-23T05:11:50;13.95;;;9.57;;
37945;SDS011;23769;52.478;13.448;2022-10-23T05:14:17;12.90;;;9.23;;
37945;SDS011;23769;52.478;13.448;2022-10-23T05:16:45;17.30;;;10.25;;
37945;SDS011;23769;52.478;13.448;2022-10-23T05:19:16;14.57;;;9.43;;
37945;SDS011;23769;52.478;13.448;2022-10-23T05:21:44;13.68;;;9.05;;
37945;SDS011;23769;52.478;13.448;2022-10-23T05:24:11;13.48;;;8.93;;
37945;SDS011;23769;52.478;13.448;2022-10-23T05:26:38;13.20;;;9.32;;
37945;SDS011;23769;52.478;13.448;2022-10-23T05:29:07;15.48;;;9.13;;
37945;SDS011;23769;52.478;13.448;2022-10-23T05:31:34;14.63;;;8.95;;
37945;SDS011;23769;52.478;13.448;2022-10-23T05:34:01;17.48;;;10.45;;
37945;SDS011;23769;52.478;13.448;2022-10-23T05:36:28;12.95;;;8.65;;
37945;SDS011;23769;52.478;13.448;2022-10-23T05:38:56;14.88;;;9.68;;
37945;SDS011;23769;52.478;13.448;2022-10-23T05:41:23;13.20;;;8.88;;
37945;SDS011;23769;52.478;13.448;2022-10-23T05:43:50;19.95;;;10.77;;
37945;SDS011;23769;52.478;13.448;2022-10-23T05:46:19;16.17;;;9.65;;
37945;SDS011;23769;52.478;13.448;2022-10-23T05:48:48;13.98;;;9.10;;
37945;SDS011;23769;52.478;13.448;2022-10-23T05:51:16;16.60;;;11.00;;
37945;SDS011;23769;52.478;13.448;2022-10-23T05:53:46;16.17;;;9.32;;
37945;SDS011;23769;52.478;13.448;2022-10-23T05:56:13;13.23;;;9.27;;
37945;SDS011;23769;52.478;13.448;2022-10-23T05:58:40;13.55;;;9.23;;
37945;SDS011;23769;52.478;13.448;2022-10-23T06:01:08;16.23;;;10.35;;
37945;SDS011;23769;52.478;13.448;2022-10-23T06:03:37;14.55;;;9.65;;
37945;SDS011;23769;52.478;13.448;2022-10-23T06:09:03;15.70;;;10.55;;
37945;SDS011;23769;52.478;13.448;2022-10-23T06:11:30;14.45;;;10.20;;
37945;SDS011;23769;52.478;13.448;2022-10-23T06:13:57;14.57;;;9.95;;
37945;SDS011;23769;52.478;13.448;2022-10-23T06:16:24;14.20;;;10.10;;
37945;SDS011;23769;52.478;13.448;2022-10-23T06:18:53;14.30;;;10.05;;
37945;SDS011;23769;52.478;13.448;2022-10-23T06:21:21;14.80;;;10.38;;
37945;SDS011;23769;52.478;13.448;2022-10-23T06:23:48;16.45;;;9.73;;
37945;SDS011;23769;52.478;13.448;2022-10-23T06:26:16;18.17;;;10.82;;
37945;SDS011;23769;52.478;13.448;2022-10-23T06:28:43;17.88;;;10.07;;
37945;SDS011;23769;52.478;13.448;2022-10-23T06:31:11;15.38;;;9.93;;
37945;SDS011;23769;52.478;13.448;2022-10-23T06:33:38;16.80;;;10.73;;
37945;SDS011;23769;52.478;13.448;2022-10-23T06:36:07;12.75;;;9.93;;
37945;SDS011;23769;52.478;13.448;2022-10-23T06:38:35;12.25;;;9.68;;
37945;SDS011;23769;52.478;13.448;2022-10-23T06:41:04;14.05;;;10.00;;
37945;SDS011;23769;52.478;13.448;2022-10-23T06:43:31;17.33;;;10.75;;
37945;SDS011;23769;52.478;13.448;2022-10-23T06:45:59;11.45;;;9.05;;
37945;SDS011;23769;52.478;13.448;2022-10-23T06:48:26;12.13;;;9.80;;
37945;SDS011;23769;52.478;13.448;2022-10-23T06:50:53;15.88;;;10.77;;
37945;SDS011;23769;52.478;13.448;2022-10-23T06:53:22;13.38;;;10.00;;
37945;SDS011;23769;52.478;13.448;2022-10-23T06:55:49;14.35;;;10.63;;
37945;SDS011;23769;52.478;13.448;2022-10-23T06:58:16;16.33;;;10.05;;
37945;SDS011;23769;52.478;13.448;2022-10-23T07:00:43;15.57;;;10.30;;
37945;SDS011;23769;52.478;13.448;2022-10-23T07:03:10;15.10;;;11.10;;
37945;SDS011;23769;52.478;13.448;2022-10-23T07:05:37;17.48;;;10.48;;
37945;SDS011;23769;52.478;13.448;2022-10-23T07:08:05;15.32;;;9.98;;
37945;SDS011;23769;52.478;13.448;2022-10-23T07:10:34;13.27;;;10.05;;
37945;SDS011;23769;52.478;13.448;2022-10-23T07:13:01;16.42;;;9.63;;
37945;SDS011;23769;52.478;13.448;2022-10-23T07:15:28;14.13;;;10.10;;
37945;SDS011;23769;52.478;13.448;2022-10-23T07:17:55;13.60;;;9.25;;
37945;SDS011;23769;52.478;13.448;2022-10-23T07:20:22;13.57;;;9.18;;
37945;SDS011;23769;52.478;13.448;2022-10-23T07:22:50;11.55;;;8.65;;
37945;SDS011;23769;52.478;13.448;2022-10-23T07:25:18;11.00;;;8.27;;
37945;SDS011;23769;52.478;13.448;2022-10-23T07:27:47;10.25;;;8.57;;
37945;SDS011;23769;52.478;13.448;2022-10-23T07:30:14;11.23;;;8.40;;
37945;SDS011;23769;52.478;13.448;2022-10-23T07:32:42;10.50;;;8.07;;
37945;SDS011;23769;52.478;13.448;2022-10-23T07:35:10;10.38;;;8.20;;
37945;SDS011;23769;52.478;13.448;2022-10-23T07:37:37;13.23;;;8.75;;
37945;SDS011;23769;52.478;13.448;2022-10-23T07:40:05;10.90;;;8.02;;
37945;SDS011;23769;52.478;13.448;2022-10-23T07:42:32;10.93;;;7.43;;
37945;SDS011;23769;52.478;13.448;2022-10-23T07:45:01;10.48;;;7.10;;
37945;SDS011;23769;52.478;13.448;2022-10-23T07:47:28;9.05;;;6.80;;
37945;SDS011;23769;52.478;13.448;2022-10-23T07:49:56;8.95;;;6.72;;
37945;SDS011;23769;52.478;13.448;2022-10-23T07:52:23;9.73;;;6.30;;
37945;SDS011;23769;52.478;13.448;2022-10-23T07:54:50;11.77;;;6.25;;
37945;SDS011;23769;52.478;13.448;2022-10-23T07:57:17;12.23;;;8.63;;
37945;SDS011;23769;52.478;13.448;2022-10-23T07:59:45;10.38;;;7.30;;
37945;SDS011;23769;52.478;13.448;2022-10-23T08:02:13;8.90;;;5.80;;
37945;SDS011;23769;52.478;13.448;2022-10-23T08:04:41;8.88;;;6.63;;
37945;SDS011;23769;52.478;13.448;2022-10-23T08:07:08;12.48;;;7.68;;
37945;SDS011;23769;52.478;13.448;2022-10-23T08:09:35;9.00;;;6.63;;
37945;SDS011;23769;52.478;13.448;2022-10-23T08:12:02;10.90;;;6.93;;
37945;SDS011;23769;52.478;13.448;2022-10-23T08:14:29;9.65;;;6.22;;
37945;SDS011;23769;52.478;13.448;2022-10-23T08:16:56;9.38;;;6.53;;
37945;SDS011;23769;52.478;13.448;2022-10-23T08:19:24;9.77;;;6.20;;
37945;SDS011;23769;52.478;13.448;2022-10-23T08:21:51;10.57;;;5.70;;
37945;SDS011;23769;52.478;13.448;2022-10-23T08:24:21;8.13;;;5.78;;
37945;SDS011;23769;52.478;13.448;2022-10-23T08:26:48;8.35;;;5.22;;
37945;SDS011;23769;52.478;13.448;2022-10-23T08:29:15;12.93;;;6.97;;
37945;SDS011;23769;52.478;13.448;2022-10-23T08:31:43;8.18;;;5.47;;
37945;SDS011;23769;52.478;13.448;2022-10-23T08:34:10;10.02;;;5.40;;
37945;SDS011;23769;52.478;13.448;2022-10-23T08:36:38;9.63;;;5.63;;
37945;SDS011;23769;52.478;13.448;2022-10-23T08:39:06;7.20;;;5.95;;
37945;SDS011;23769;52.478;13.448;2022-10-23T08:41:34;7.80;;;5.53;;
37945;SDS011;23769;52.478;13.448;2022-10-23T08:44:04;10.52;;;6.15;;
37945;SDS011;23769;52.478;13.448;2022-10-23T08:46:34;9.75;;;6.43;;
37945;SDS011;23769;52.478;13.448;2022-10-23T08:49:06;9.43;;;5.07;;
37945;SDS011;23769;52.478;13.448;2022-10-23T08:51:36;9.75;;;5.20;;
37945;SDS011;23769;52.478;13.448;2022-10-23T08:54:07;8.50;;;4.78;;
37945;SDS011;23769;52.478;13.448;2022-10-23T08:56:38;7.80;;;5.00;;
37945;SDS011;23769;52.478;13.448;2022-10-23T08:59:08;10.10;;;5.75;;
37945;SDS011;23769;52.478;13.448;2022-10-23T09:01:39;7.07;;;4.47;;
37945;SDS011;23769;52.478;13.448;2022-10-23T09:04:07;7.03;;;4.40;;
37945;SDS011;23769;52.478;13.448;2022-10-23T09:06:38;6.43;;;4.40;;
37945;SDS011;23769;52.478;13.448;2022-10-23T09:11:51;7.78;;;5.32;;
37945;SDS011;23769;52.478;13.448;2022-10-23T09:14:33;6.20;;;4.15;;
37945;SDS011;23769;52.478;13.448;2022-10-23T09:17:08;10.75;;;4.80;;
37945;SDS011;23769;52.478;13.448;2022-10-23T09:19:37;10.43;;;5.78;;
37945;SDS011;23769;52.478;13.448;2022-10-23T09:22:04;9.55;;;4.82;;
37945;SDS011;23769;52.478;13.448;2022-10-23T09:24:31;7.97;;;4.55;;
37945;SDS011;23769;52.478;13.448;2022-10-23T09:27:00;7.10;;;4.30;;
37945;SDS011;23769;52.478;13.448;2022-10-23T09:29:28;8.35;;;4.85;;
37945;SDS011;23769;52.478;13.448;2022-10-23T09:31:56;8.07;;;4.63;;
37945;SDS011;23769;52.478;13.448;2022-10-23T09:34:24;9.98;;;4.30;;
37945;SDS011;23769;52.478;13.448;2022-10-23T09:36:52;6.90;;;3.97;;
37945;SDS011;23769;52.478;13.448;2022-10-23T09:39:21;6.68;;;4.15;;
37945;SDS011;23769;52.478;13.448;2022-10-23T09:41:48;6.10;;;3.92;;
37945;SDS011;23769;52.478;13.448;2022-10-23T09:44:18;6.80;;;3.97;;
37945;SDS011;23769;52.478;13.448;2022-10-23T09:46:47;9.18;;;3.88;;
37945;SDS011;23769;52.478;13.448;2022-10-23T09:49:18;7.07;;;3.88;;
37945;SDS011;23769;52.478;13.448;2022-10-23T09:51:53;5.80;;;3.47;;
37945;SDS011;23769;52.478;13.448;2022-10-23T09:54:20;7.43;;;4.15;;
37945;SDS011;23769;52.478;13.448;2022-10-23T09:56:49;12.02;;;6.20;;
37945;SDS011;23769;52.478;13.448;2022-10-23T09:59:19;12.25;;;6.07;;
37945;SDS011;23769;52.478;13.448;2022-10-23T10:01:48;13.70;;;7.05;;
37945;SDS011;23769;52.478;13.448;2022-10-23T10:04:16;17.95;;;8.93;;
37945;SDS011;23769;52.478;13.448;2022-10-23T10:06:43;8.65;;;4.93;;
37945;SDS011;23769;52.478;13.448;2022-10-23T10:09:11;7.35;;;3.58;;
37945;SDS011;23769;52.478;13.448;2022-10-23T10:11:39;8.38;;;4.00;;
37945;SDS011;23769;52.478;13.448;2022-10-23T10:14:24;8.63;;;4.30;;
37945;SDS011;23769;52.478;13.448;2022-10-23T10:16:57;6.68;;;4.05;;
37945;SDS011;23769;52.478;13.448;2022-10-23T10:19:29;5.57;;;3.58;;
37945;SDS011;23769;52.478;13.448;2022-10-23T10:22:00;7.13;;;3.80;;
37945;SDS011;23769;52.478;13.448;2022-10-23T10:24:34;5.40;;;3.47;;
37945;SDS011;23769;52.478;13.448;2022-10-23T10:27:04;6.20;;;3.30;;
37945;SDS011;23769;52.478;13.448;2022-10-23T10:29:39;6.53;;;3.50;;
37945;SDS011;23769;52.478;13.448;2022-10-23T10:32:12;7.18;;;3.33;;
37945;SDS011;23769;52.478;13.448;2022-10-23T10:34:43;6.03;;;3.30;;
37945;SDS011;23769;52.478;13.448;2022-10-23T10:37:15;6.95;;;3.88;;
37945;SDS011;23769;52.478;13.448;2022-10-23T10:39:46;7.38;;;4.07;;
37945;SDS011;23769;52.478;13.448;2022-10-23T10:42:24;10.18;;;5.72;;
37945;SDS011;23769;52.478;13.448;2022-10-23T10:45:05;6.85;;;4.15;;
37945;SDS011;23769;52.478;13.448;2022-10-23T10:47:36;7.53;;;4.55;;
37945;SDS011;23769;52.478;13.448;2022-10-23T10:50:07;8.70;;;4.57;;
37945;SDS011;23769;52.478;13.448;2022-10-23T10:52:41;8.60;;;4.85;;
37945;SDS011;23769;52.478;13.448;2022-10-23T10:55:13;9.48;;;4.90;;
37945;SDS011;23769;52.478;13.448;2022-10-23T10:57:43;8.70;;;4.72;;
37945;SDS011;23769;52.478;13.448;2022-10-23T11:00:14;5.20;;;4.18;;
37945;SDS011;23769;52.478;13.448;2022-10-23T11:02:43;7.72;;;4.50;;
37945;SDS011;23769;52.478;13.448;2022-10-23T11:05:17;8.88;;;4.18;;
37945;SDS011;23769;52.478;13.448;2022-10-23T11:07:50;6.47;;;4.10;;
37945;SDS011;23769;52.478;13.448;2022-10-23T11:12:45;8.88;;;4.75;;
37945;SDS011;23769;52.478;13.448;2022-10-23T11:15:15;9.02;;;5.47;;
37945;SDS011;23769;52.478;13.448;2022-10-23T11:17:44;8.45;;;3.65;;
37945;SDS011;23769;52.478;13.448;2022-10-23T11:20:15;8.18;;;3.55;;
37945;SDS011;23769;52.478;13.448;2022-10-23T11:22:47;5.43;;;2.92;;
37945;SDS011;23769;52.478;13.448;2022-10-23T11:28:12;9.93;;;3.72;;
37945;SDS011;23769;52.478;13.448;2022-10-23T11:30:48;6.15;;;3.65;;
37945;SDS011;23769;52.478;13.448;2022-10-23T11:33:41;7.72;;;3.28;;
37945;SDS011;23769;52.478;13.448;2022-10-23T11:36:15;10.93;;;3.35;;
37945;SDS011;23769;52.478;13.448;2022-10-23T11:38:44;6.55;;;2.67;;
37945;SDS011;23769;52.478;13.448;2022-10-23T11:41:16;5.07;;;2.83;;
37945;SDS011;23769;52.478;13.448;2022-10-23T11:43:46;4.15;;;2.67;;
37945;SDS011;23769;52.478;13.448;2022-10-23T11:46:27;3.83;;;2.50;;
37945;SDS011;23769;52.478;13.448;2022-10-23T11:48:54;5.55;;;2.70;;
37945;SDS011;23769;52.478;13.448;2022-10-23T11:51:26;4.72;;;2.55;;
37945;SDS011;23769;52.478;13.448;2022-10-23T11:54:03;6.53;;;2.75;;
37945;SDS011;23769;52.478;13.448;2022-10-23T11:56:30;3.90;;;2.60;;
37945;SDS011;23769;52.478;13.448;2022-10-23T11:58:58;6.47;;;3.20;;
37945;SDS011;23769;52.478;13.448;2022-10-23T12:01:43;8.07;;;3.40;;
37945;SDS011;23769;52.478;13.448;2022-10-23T12:04:15;9.77;;;3.88;;
37945;SDS011;23769;52.478;13.448;2022-10-23T12:06:44;5.35;;;2.65;;
37945;SDS011;23769;52.478;13.448;2022-10-23T12:09:21;4.28;;;2.53;;
37945;SDS011;23769;52.478;13.448;2022-10-23T12:11:59;7.10;;;3.08;;
37945;SDS011;23769;52.478;13.448;2022-10-23T12:14:28;5.30;;;2.67;;
37945;SDS011;23769;52.478;13.448;2022-10-23T12:16:56;9.02;;;2.28;;
37945;SDS011;23769;52.478;13.448;2022-10-23T12:19:25;8.02;;;2.30;;
37945;SDS011;23769;52.478;13.448;2022-10-23T12:21:53;7.70;;;2.95;;
37945;SDS011;23769;52.478;13.448;2022-10-23T12:24:25;7.07;;;2.10;;
37945;SDS011;23769;52.478;13.448;2022-10-23T12:27:05;4.25;;;2.70;;
37945;SDS011;23769;52.478;13.448;2022-10-23T12:29:37;9.60;;;2.80;;
37945;SDS011;23769;52.478;13.448;2022-10-23T12:32:16;4.72;;;2.38;;
37945;SDS011;23769;52.478;13.448;2022-10-23T12:34:47;7.50;;;2.00;;
37945;SDS011;23769;52.478;13.448;2022-10-23T12:37:22;4.63;;;2.10;;
37945;SDS011;23769;52.478;13.448;2022-10-23T12:39:51;12.55;;;4.85;;
37945;SDS011;23769;52.478;13.448;2022-10-23T12:42:20;6.78;;;3.35;;
37945;SDS011;23769;52.478;13.448;2022-10-23T12:44:56;3.97;;;2.03;;
37945;SDS011;23769;52.478;13.448;2022-10-23T12:47:24;5.63;;;2.40;;
37945;SDS011;23769;52.478;13.448;2022-10-23T12:49:52;5.65;;;2.90;;
37945;SDS011;23769;52.478;13.448;2022-10-23T12:52:19;8.27;;;4.68;;
37945;SDS011;23769;52.478;13.448;2022-10-23T12:54:48;6.85;;;2.47;;
37945;SDS011;23769;52.478;13.448;2022-10-23T12:57:17;4.88;;;2.13;;
37945;SDS011;23769;52.478;13.448;2022-10-23T12:59:45;7.70;;;4.55;;
37945;SDS011;23769;52.478;13.448;2022-10-23T13:02:13;4.60;;;2.00;;
37945;SDS011;23769;52.478;13.448;2022-10-23T13:04:49;4.18;;;1.75;;
37945;SDS011;23769;52.478;13.448;2022-10-23T13:07:17;8.13;;;2.85;;
37945;SDS011;23769;52.478;13.448;2022-10-23T13:09:45;7.82;;;3.38;;
37945;SDS011;23769;52.478;13.448;2022-10-23T13:12:15;6.15;;;2.10;;
37945;SDS011;23769;52.478;13.448;2022-10-23T13:14:53;5.68;;;2.67;;
37945;SDS011;23769;52.478;13.448;2022-10-23T13:17:21;7.80;;;3.33;;
37945;SDS011;23769;52.478;13.448;2022-10-23T13:20:08;6.78;;;2.50;;
37945;SDS011;23769;52.478;13.448;2022-10-23T13:22:35;5.95;;;2.25;;
37945;SDS011;23769;52.478;13.448;2022-10-23T13:25:17;4.55;;;2.03;;
37945;SDS011;23769;52.478;13.448;2022-10-23T13:27:45;8.18;;;2.63;;
37945;SDS011;23769;52.478;13.448;2022-10-23T13:30:26;8.88;;;3.85;;
37945;SDS011;23769;52.478;13.448;2022-10-23T13:32:53;5.43;;;2.08;;
37945;SDS011;23769;52.478;13.448;2022-10-23T13:35:22;5.95;;;2.20;;
37945;SDS011;23769;52.478;13.448;2022-10-23T13:37:49;5.43;;;2.50;;
37945;SDS011;23769;52.478;13.448;2022-10-23T13:40:20;4.57;;;2.03;;
37945;SDS011;23769;52.478;13.448;2022-10-23T13:42:49;6.47;;;2.30;;
37945;SDS011;23769;52.478;13.448;2022-10-23T13:45:18;4.35;;;1.98;;
37945;SDS011;23769;52.478;13.448;2022-10-23T13:47:46;5.38;;;2.55;;
37945;SDS011;23769;52.478;13.448;2022-10-23T13:50:13;5.82;;;2.85;;
37945;SDS011;23769;52.478;13.448;2022-10-23T13:52:42;6.82;;;2.50;;
37945;SDS011;23769;52.478;13.448;2022-10-23T13:55:12;4.03;;;1.60;;
37945;SDS011;23769;52.478;13.448;2022-10-23T13:57:41;4.82;;;2.05;;
37945;SDS011;23769;52.478;13.448;2022-10-23T14:00:09;5.07;;;2.40;;
37945;SDS011;23769;52.478;13.448;2022-10-23T14:02:36;5.38;;;1.95;;
37945;SDS011;23769;52.478;13.448;2022-10-23T14:05:03;4.50;;;2.33;;
37945;SDS011;23769;52.478;13.448;2022-10-23T14:07:30;6.53;;;2.63;;
37945;SDS011;23769;52.478;13.448;2022-10-23T14:09:59;9.30;;;3.20;;
37945;SDS011;23769;52.478;13.448;2022-10-23T14:12:26;6.15;;;2.45;;
37945;SDS011;23769;52.478;13.448;2022-10-23T14:14:53;4.90;;;2.15;;
37945;SDS011;23769;52.478;13.448;2022-10-23T14:17:20;6.50;;;2.30;;
37945;SDS011;23769;52.478;13.448;2022-10-23T14:19:47;6.00;;;2.20;;
37945;SDS011;23769;52.478;13.448;2022-10-23T14:22:14;6.70;;;2.40;;
37945;SDS011;23769;52.478;13.448;2022-10-23T14:24:42;5.70;;;2.03;;
37945;SDS011;23769;52.478;13.448;2022-10-23T14:27:10;5.38;;;2.60;;
37945;SDS011;23769;52.478;13.448;2022-10-23T14:29:39;5.28;;;2.28;;
37945;SDS011;23769;52.478;13.448;2022-10-23T14:32:06;6.18;;;2.67;;
37945;SDS011;23769;52.478;13.448;2022-10-23T14:34:33;5.72;;;2.45;;
37945;SDS011;23769;52.478;13.448;2022-10-23T14:37:00;5.10;;;2.45;;
37945;SDS011;23769;52.478;13.448;2022-10-23T14:39:28;7.30;;;2.40;;
37945;SDS011;23769;52.478;13.448;2022-10-23T14:41:55;8.38;;;3.38;;
37945;SDS011;23769;52.478;13.448;2022-10-23T14:44:23;5.80;;;2.78;;
37945;SDS011;23769;52.478;13.448;2022-10-23T14:46:50;5.63;;;2.53;;
37945;SDS011;23769;52.478;13.448;2022-10-23T14:49:17;5.78;;;2.80;;
37945;SDS011;23769;52.478;13.448;2022-10-23T14:51:45;5.57;;;3.00;;